Elkins, Arkansas
Current Conditions -  °F | °C
As of 12:53 PM on Friday 21 Nov 2014 (Local Time) from KFYV Reporting Station
Overcast Overcast  
Wind Chill: 54°   Ceiling: 1300
Heat Index: 54°   Visibility: 10mi
Dew Point: 49°   Wind: 12mph
Humidity: 83%   Direction: 160°SSE
Pressure: 30.16"   Gusts: 20mph
Location:  36°N, 94.01°W
Report Text: KFYV 211853Z 16010G17KT 10SM OVC013 12/09 A3016 RMK AO2 SLP216 T01220094
Loading
Personal Weather Stations






























Interactive Weather Map New forecast layout! Learn more

10-Day Weather Forecast

Advertisements
Track Severe Weather on mobile